Terminal Aerodrome Forecast
Issued by NWS

Current Version | Previous Version | Text Only | Print | Product List | Glossary Off
Versions: 1 2 3 4 5 6 7 8 9 10 11 12 13 14 15 16 17 18 19 20 21 22

731
FTUS41 KPBZ 110532
TAFHLG
TAF
KHLG 110532Z 1106/1206 14003KT P6SM SCT035 OVC080
     FM110800 17003KT 3SM -SN OVC025
      TEMPO 1109/1113 2SM -SN OVC015
     FM111600 15006KT P6SM OVC050
     FM120100 14007KT 5SM -RASN OVC035=

USA.gov is the U.S. government's official web portal to all federal, state and local government web resources and services.